Thursday, May 24, 2018, 1:49 PM EDT
Back to Local

KGFL, Floyd Bennett Memorial Airport

Location: Queensbury, NY, United States Lat: 43.333
Local Time: 1:49 PM EDT (17:49 GMT) Lon: -73.617
Time Zone: US/Eastern Elev: 328 ft

Show me the last for .
Show Decoded

2018-05-24 12:53 METAR KGFL 241653Z AUTO 01007KT 10SM CLR 22/M01 A3011 RMK AO2 SLP198 T02221006 =
2018-05-24 11:53 METAR KGFL 241553Z AUTO 02008KT 10SM CLR 21/M01 A3014 RMK AO2 SLP207 T02061006 =
2018-05-24 10:53 METAR KGFL 241453Z AUTO VRB06KT 10SM CLR 19/00 A3015 RMK AO2 SLP211 T01940000
                 51001 =
2018-05-24 09:53 METAR KGFL 241353Z AUTO 02005KT 10SM CLR 18/00 A3015 RMK AO2 SLP210 T01780000 =
2018-05-24 08:53 METAR KGFL 241253Z AUTO 01006KT 10SM CLR 17/02 A3016 RMK AO2 SLP212 T01670017 =
2018-05-24 07:53 METAR KGFL 241153Z AUTO 02005KT 10SM CLR 14/04 A3015 RMK AO2 SLP209 T01440039
                 10144 20056 51023 =
2018-05-24 06:53 METAR KGFL 241053Z AUTO 04005KT 10SM CLR 11/07 A3014 RMK AO2 SLP206 T01110072 =
2018-05-24 05:53 METAR KGFL 240953Z AUTO 00000KT 10SM CLR 06/06 A3011 RMK AO2 SLP196 T00610056 =
2018-05-24 04:53 METAR KGFL 240853Z AUTO 00000KT 6SM BR CLR 06/06 A3008 RMK AO2 SLP186 T00560056
                 51018 =
2018-05-24 03:53 METAR KGFL 240753Z AUTO 00000KT 10SM CLR 07/07 A3007 RMK AO2 SLP182 T00720067 =
2018-05-24 02:53 METAR KGFL 240653Z AUTO 00000KT 10SM CLR 11/08 A3005 RMK AO2 SLP175 T01110078 =
2018-05-24 01:53 METAR KGFL 240553Z AUTO 29007KT 10SM CLR 10/08 A3003 RMK AO2 SLP168 T01000078
                 10222 20083 51009 =
2018-05-24 00:53 METAR KGFL 240453Z AUTO 00000KT 10SM CLR 09/08 A3002 RMK AO2 SLP166 T00940083
                 402780094 =
2018-05-23 23:53 METAR KGFL 240353Z AUTO 35003KT 10SM CLR 12/09 A3001 RMK AO2 SLP161 T01170089 =
2018-05-23 22:53 METAR KGFL 240253Z AUTO 00000KT 10SM CLR 12/09 A3000 RMK AO2 SLP159 T01220094
                 51017 =
2018-05-23 21:53 METAR KGFL 240153Z AUTO 35005KT 10SM CLR 19/07 A2999 RMK AO2 SLP156 T01890067 =
2018-05-23 20:53 METAR KGFL 240053Z AUTO 00000KT 10SM CLR 17/09 A2998 RMK AO2 SLP151 T01670089 =
2018-05-23 19:53 METAR KGFL 232353Z AUTO 33008KT 10SM CLR 22/05 A2995 RMK AO2 PK WND 32029/2321
                 SLP140 T02220050 10278 20222 53025 =
2018-05-23 18:53 METAR KGFL 232253Z AUTO 32015G33KT 10SM CLR 24/04 A2992 RMK AO2 PK WND
                 30033/2246 SLP133 T02440039 =
2018-05-23 17:53 METAR KGFL 232153Z AUTO 33008KT 10SM CLR 25/08 A2989 RMK AO2 SLP120 T02500078 =
2018-05-23 16:53 METAR KGFL 232053Z AUTO 30013KT 10SM SCT100 27/08 A2987 RMK AO2 SLP115 T02720083
                 55005 =
2018-05-23 15:53 METAR KGFL 231953Z AUTO 29011G19KT 10SM BKN100 26/07 A2986 RMK AO2 SLP112
                 T02610072 =
2018-05-23 14:53 METAR KGFL 231853Z AUTO 17009KT 10SM SCT095 BKN120 24/15 A2987 RMK AO2 SLP116
                 T02440150 =
2018-05-23 13:53 METAR KGFL 231753Z AUTO 17010KT 10SM FEW090 25/16 A2989 RMK AO2 SLP121 T02500156
                 10250 20144 58016 =

Support USWX by starting your Amazon purchase here.